Time;durP1;ratioP1;P1;durP2;ratioP2;P2;SDS_P1;SDS_P2;PMS_P1;PMS_P2;Temp;Humidity;BMP_temperature;BMP_pressure;BME280_temperature;BME280_humidity;BME280_pressure;Samples;Min_cycle;Max_cycle;Signal;HPM_P1;HPM_P2
2023/06/13 00:00:57;;;;;;;8.13;5.30;;;;;;;;;;5072837;28;20060;-85
2023/06/13 00:03:23;;;;;;;7.70;5.03;;;;;;;;;;5056437;28;20040;-86
2023/06/13 00:05:51;;;;;;;8.20;4.82;;;;;;;;;;5071547;28;20500;-86
2023/06/13 00:08:21;;;;;;;7.32;4.65;;;;;;;;;;5053258;28;20037;-85
2023/06/13 00:10:53;;;;;;;8.45;5.00;;;;;;;;;;5072714;28;20097;-86
2023/06/13 00:13:20;;;;;;;7.95;4.50;;;;;;;;;;5074263;28;20052;-85
2023/06/13 00:16:04;;;;;;;9.63;4.70;;;;;;;;;;5061665;28;20578;-85
2023/06/13 00:18:30;;;;;;;11.25;4.32;;;;;;;;;;5073170;28;20040;-85
2023/06/13 00:20:58;;;;;;;7.40;4.38;;;;;;;;;;5045018;28;20046;-85
2023/06/13 00:23:25;;;;;;;7.40;4.90;;;;;;;;;;5056327;28;20049;-85
2023/06/13 00:25:51;;;;;;;7.00;4.78;;;;;;;;;;5062309;28;20120;-85
2023/06/13 00:28:17;;;;;;;7.90;4.78;;;;;;;;;;5055985;28;20045;-85
2023/06/13 00:30:45;;;;;;;7.22;4.75;;;;;;;;;;5072572;28;20044;-86
2023/06/13 00:33:15;;;;;;;8.27;4.43;;;;;;;;;;5049861;28;20065;-85
2023/06/13 00:35:42;;;;;;;7.60;4.65;;;;;;;;;;5060609;28;20047;-85
2023/06/13 00:38:08;;;;;;;8.40;5.15;;;;;;;;;;5057318;28;20065;-85
2023/06/13 00:40:34;;;;;;;7.40;4.38;;;;;;;;;;5048655;28;20048;-85
2023/06/13 00:43:00;;;;;;;6.80;4.47;;;;;;;;;;5071619;28;20051;-85
2023/06/13 00:45:31;;;;;;;7.05;4.57;;;;;;;;;;5051152;28;20045;-85
2023/06/13 00:48:05;;;;;;;7.95;4.88;;;;;;;;;;5093448;28;20048;-85
2023/06/13 00:50:43;;;;;;;10.18;4.50;;;;;;;;;;5045703;28;20053;-86
2023/06/13 00:53:16;;;;;;;7.47;4.50;;;;;;;;;;5071684;28;20056;-86
2023/06/13 00:55:42;;;;;;;13.70;5.32;;;;;;;;;;5055465;28;20065;-85
2023/06/13 00:58:10;;;;;;;7.50;5.00;;;;;;;;;;5060482;28;20045;-85
2023/06/13 01:00:40;;;;;;;6.72;4.93;;;;;;;;;;5055455;28;20148;-86
2023/06/13 01:03:08;;;;;;;10.13;5.20;;;;;;;;;;5055512;28;20094;-85
2023/06/13 01:05:35;;;;;;;8.32;5.25;;;;;;;;;;5072726;28;20447;-85
2023/06/13 01:08:02;;;;;;;9.48;5.10;;;;;;;;;;5068859;28;20041;-85
2023/06/13 01:10:29;;;;;;;8.57;5.50;;;;;;;;;;5070247;28;20554;-86
2023/06/13 01:13:24;;;;;;;8.00;5.18;;;;;;;;;;5072685;28;20045;-84
2023/06/13 01:15:50;;;;;;;8.38;5.60;;;;;;;;;;5051244;28;20123;-84
2023/06/13 01:18:22;;;;;;;9.00;5.70;;;;;;;;;;5061101;28;20513;-86
2023/06/13 01:20:51;;;;;;;11.90;5.72;;;;;;;;;;5069776;28;20063;-85
2023/06/13 01:23:36;;;;;;;10.70;5.78;;;;;;;;;;5071124;28;20119;-84
2023/06/13 01:26:20;;;;;;;9.48;5.43;;;;;;;;;;5072079;28;20052;-85
2023/06/13 01:28:47;;;;;;;9.85;5.68;;;;;;;;;;5060174;28;20387;-84
2023/06/13 01:31:16;;;;;;;8.40;5.63;;;;;;;;;;5054438;28;20430;-84
2023/06/13 01:33:42;;;;;;;10.88;5.40;;;;;;;;;;5071402;28;20140;-85
2023/06/13 01:36:08;;;;;;;13.07;5.93;;;;;;;;;;5052700;28;20040;-85
2023/06/13 01:38:35;;;;;;;10.20;5.45;;;;;;;;;;5065984;28;20516;-85
2023/06/13 01:41:01;;;;;;;8.93;5.55;;;;;;;;;;5067740;28;20051;-85
2023/06/13 01:43:27;;;;;;;7.70;5.60;;;;;;;;;;5070923;28;20055;-85
2023/06/13 01:45:57;;;;;;;10.82;6.40;;;;;;;;;;5070925;28;20044;-85
2023/06/13 01:48:23;;;;;;;6.95;5.30;;;;;;;;;;5069697;28;20427;-85
2023/06/13 01:51:22;;;;;;;12.30;5.80;;;;;;;;;;5057453;28;20088;-85
2023/06/13 01:54:02;;;;;;;9.68;5.90;;;;;;;;;;5030832;28;20150;-85
2023/06/13 01:56:31;;;;;;;8.40;6.03;;;;;;;;;;5070735;28;20041;-85
2023/06/13 01:59:01;;;;;;;9.60;5.75;;;;;;;;;;5054299;28;20041;-85
2023/06/13 02:01:28;;;;;;;9.25;5.65;;;;;;;;;;5068499;28;20513;-85
2023/06/13 02:03:54;;;;;;;7.45;5.72;;;;;;;;;;5056159;28;20044;-85
2023/06/13 02:06:20;;;;;;;9.80;6.03;;;;;;;;;;5049353;28;20045;-84
2023/06/13 02:08:46;;;;;;;9.95;5.60;;;;;;;;;;5050439;28;20124;-85
2023/06/13 02:11:13;;;;;;;9.65;5.90;;;;;;;;;;5050081;28;20045;-85
2023/06/13 02:13:39;;;;;;;9.68;5.72;;;;;;;;;;5051845;28;20032;-85
2023/06/13 02:16:05;;;;;;;11.20;5.93;;;;;;;;;;5033975;28;20128;-85
2023/06/13 02:18:32;;;;;;;8.85;5.88;;;;;;;;;;5017425;28;20049;-85
2023/06/13 02:20:58;;;;;;;8.20;5.55;;;;;;;;;;5034000;28;20520;-85
2023/06/13 02:23:24;;;;;;;9.25;6.05;;;;;;;;;;5050144;28;20037;-85
2023/06/13 02:25:51;;;;;;;8.02;5.55;;;;;;;;;;5036621;28;20432;-85
2023/06/13 02:28:18;;;;;;;8.18;5.93;;;;;;;;;;5054009;28;20044;-85
2023/06/13 02:30:44;;;;;;;16.08;6.13;;;;;;;;;;5050617;28;20508;-85
2023/06/13 02:33:14;;;;;;;9.77;5.72;;;;;;;;;;5050540;28;20387;-86
2023/06/13 02:35:41;;;;;;;11.27;5.32;;;;;;;;;;5063888;28;20044;-85
2023/06/13 02:38:07;;;;;;;11.40;6.07;;;;;;;;;;5052675;28;20040;-86
2023/06/13 02:40:33;;;;;;;9.82;5.75;;;;;;;;;;5062506;28;20158;-85
2023/06/13 02:43:01;;;;;;;12.38;5.85;;;;;;;;;;5056700;28;20076;-85
2023/06/13 02:45:27;;;;;;;11.63;5.90;;;;;;;;;;5069931;28;20044;-85
2023/06/13 02:47:54;;;;;;;9.50;5.63;;;;;;;;;;5070618;28;20121;-85
2023/06/13 02:50:21;;;;;;;12.50;6.10;;;;;;;;;;5071211;28;20520;-85
2023/06/13 02:52:47;;;;;;;8.60;5.72;;;;;;;;;;5063114;28;20489;-85
2023/06/13 02:55:14;;;;;;;11.38;6.13;;;;;;;;;;5070442;28;20044;-84
2023/06/13 02:57:40;;;;;;;14.27;6.20;;;;;;;;;;5041762;28;20188;-85
2023/06/13 03:00:10;;;;;;;8.95;5.88;;;;;;;;;;5068602;28;20063;-85
2023/06/13 03:02:37;;;;;;;13.88;6.53;;;;;;;;;;5067450;28;20509;-85
2023/06/13 03:05:07;;;;;;;9.43;6.07;;;;;;;;;;5054631;28;20401;-84
2023/06/13 03:07:34;;;;;;;9.23;5.70;;;;;;;;;;5070252;28;20049;-84
2023/06/13 03:10:04;;;;;;;11.25;6.05;;;;;;;;;;5069495;28;20060;-84
2023/06/13 03:12:30;;;;;;;9.82;5.93;;;;;;;;;;5053676;28;20072;-84
2023/06/13 03:14:57;;;;;;;10.15;6.32;;;;;;;;;;5054401;28;20083;-85
2023/06/13 03:17:23;;;;;;;9.20;5.82;;;;;;;;;;5054870;28;20513;-85
2023/06/13 03:19:50;;;;;;;10.38;5.95;;;;;;;;;;5066325;28;20047;-85
2023/06/13 03:22:16;;;;;;;10.52;6.50;;;;;;;;;;5071994;28;20041;-85
2023/06/13 03:24:42;;;;;;;9.95;6.03;;;;;;;;;;5055843;28;20053;-84
2023/06/13 03:27:12;;;;;;;12.27;6.20;;;;;;;;;;5073032;28;20032;-85
2023/06/13 03:29:40;;;;;;;9.77;5.80;;;;;;;;;;5073719;28;20535;-86
2023/06/13 03:32:06;;;;;;;11.88;6.13;;;;;;;;;;5075072;28;20091;-85
2023/06/13 03:34:37;;;;;;;11.35;6.40;;;;;;;;;;5067866;28;20045;-86
2023/06/13 03:37:05;;;;;;;10.25;6.20;;;;;;;;;;5067769;28;20481;-85
2023/06/13 03:39:31;;;;;;;10.07;6.28;;;;;;;;;;5060749;28;20045;-85
2023/06/13 03:41:57;;;;;;;9.98;6.03;;;;;;;;;;5068376;28;20048;-85
2023/06/13 03:44:23;;;;;;;11.20;6.15;;;;;;;;;;5069552;28;20078;-85
2023/06/13 03:46:49;;;;;;;9.27;6.13;;;;;;;;;;5041035;28;20407;-85
2023/06/13 03:49:15;;;;;;;12.30;6.07;;;;;;;;;;5042449;28;20084;-85
2023/06/13 03:51:42;;;;;;;10.05;5.82;;;;;;;;;;5072911;28;20040;-85
2023/06/13 03:54:08;;;;;;;9.93;6.07;;;;;;;;;;5073673;28;20076;-85
2023/06/13 03:56:35;;;;;;;9.15;6.00;;;;;;;;;;5064809;28;20393;-86
2023/06/13 03:59:01;;;;;;;12.48;5.63;;;;;;;;;;5068197;28;20049;-85
2023/06/13 04:01:28;;;;;;;9.40;6.25;;;;;;;;;;5052298;28;20049;-85
2023/06/13 04:03:54;;;;;;;11.57;6.25;;;;;;;;;;5048151;28;20094;-86
2023/06/13 04:06:20;;;;;;;9.32;6.15;;;;;;;;;;5051531;28;20385;-86
2023/06/13 04:08:47;;;;;;;10.07;5.95;;;;;;;;;;5055268;28;20107;-86
2023/06/13 04:11:13;;;;;;;8.70;6.00;;;;;;;;;;5037731;28;20072;-85
2023/06/13 04:13:39;;;;;;;11.02;6.03;;;;;;;;;;5087416;28;20040;-85
2023/06/13 04:16:05;;;;;;;9.10;5.13;;;;;;;;;;5053879;28;20521;-85
2023/06/13 04:18:33;;;;;;;8.23;5.75;;;;;;;;;;5053849;28;20041;-85
2023/06/13 04:20:59;;;;;;;9.70;5.38;;;;;;;;;;5054222;28;20041;-85
2023/06/13 04:23:28;;;;;;;9.07;5.70;;;;;;;;;;5052954;28;20045;-86
2023/06/13 04:25:55;;;;;;;8.13;5.43;;;;;;;;;;5054846;28;20067;-86
2023/06/13 04:28:24;;;;;;;7.20;5.35;;;;;;;;;;5036198;28;20037;-85
2023/06/13 04:30:51;;;;;;;12.68;5.50;;;;;;;;;;5052044;28;20081;-85
2023/06/13 04:33:18;;;;;;;9.30;5.60;;;;;;;;;;5052273;28;20106;-84
2023/06/13 04:35:44;;;;;;;8.35;5.80;;;;;;;;;;5035410;28;20120;-85
2023/06/13 04:38:21;;;;;;;9.45;5.68;;;;;;;;;;5037087;28;20538;-85
2023/06/13 04:40:47;;;;;;;10.65;5.25;;;;;;;;;;5035575;28;20041;-85
2023/06/13 04:43:17;;;;;;;8.27;5.20;;;;;;;;;;5056932;28;20044;-85
2023/06/13 04:45:43;;;;;;;7.78;5.57;;;;;;;;;;5050046;28;20106;-84
2023/06/13 04:48:10;;;;;;;7.65;5.43;;;;;;;;;;5061802;28;20123;-85
2023/06/13 04:50:40;;;;;;;9.05;4.93;;;;;;;;;;5070983;28;20123;-84
2023/06/13 04:53:08;;;;;;;8.80;5.32;;;;;;;;;;5072221;28;20044;-83
2023/06/13 04:55:37;;;;;;;9.93;5.45;;;;;;;;;;5071700;28;20149;-85
2023/06/13 04:58:04;;;;;;;8.02;4.72;;;;;;;;;;5059903;28;20398;-86
2023/06/13 05:00:30;;;;;;;7.00;4.95;;;;;;;;;;5055481;28;20045;-86
2023/06/13 05:02:56;;;;;;;7.47;4.90;;;;;;;;;;5068603;28;20084;-84
2023/06/13 05:05:23;;;;;;;9.85;4.90;;;;;;;;;;5063334;28;20037;-84
2023/06/13 05:07:57;;;;;;;9.82;5.35;;;;;;;;;;5058576;28;20101;-85
2023/06/13 05:10:27;;;;;;;11.70;5.05;;;;;;;;;;5071981;28;20044;-85
2023/06/13 05:12:53;;;;;;;11.02;5.00;;;;;;;;;;5071290;28;20123;-85
2023/06/13 05:15:23;;;;;;;8.50;4.80;;;;;;;;;;5066469;28;20119;-85
2023/06/13 05:17:54;;;;;;;6.10;4.65;;;;;;;;;;5047804;28;20498;-83
2023/06/13 05:20:26;;;;;;;7.72;4.65;;;;;;;;;;5056339;28;20055;-86
2023/06/13 05:22:53;;;;;;;8.30;4.93;;;;;;;;;;5071481;28;20055;-86
2023/06/13 05:25:19;;;;;;;6.68;4.80;;;;;;;;;;5055139;28;20033;-86
2023/06/13 05:27:46;;;;;;;11.95;4.70;;;;;;;;;;5066504;28;20271;-86
2023/06/13 05:30:12;;;;;;;6.72;4.80;;;;;;;;;;5057771;28;21432;-86
2023/06/13 05:32:38;;;;;;;9.13;4.60;;;;;;;;;;5034779;28;20389;-86
2023/06/13 05:35:07;;;;;;;7.38;4.40;;;;;;;;;;5051142;28;20041;-86
2023/06/13 05:37:36;;;;;;;6.78;4.20;;;;;;;;;;5051233;28;20049;-86
2023/06/13 05:40:02;;;;;;;8.73;4.35;;;;;;;;;;5051108;28;20094;-86
2023/06/13 05:42:28;;;;;;;8.88;4.80;;;;;;;;;;5060363;28;20039;-86
2023/06/13 05:44:54;;;;;;;7.78;4.38;;;;;;;;;;5066415;28;20335;-86
2023/06/13 05:47:21;;;;;;;6.35;4.20;;;;;;;;;;5046483;28;20079;-86
2023/06/13 05:49:47;;;;;;;7.88;4.78;;;;;;;;;;5072072;28;20497;-86
2023/06/13 05:52:13;;;;;;;9.02;4.65;;;;;;;;;;5071103;28;20040;-86
2023/06/13 05:54:39;;;;;;;6.97;3.97;;;;;;;;;;5068562;28;20055;-86
2023/06/13 05:57:05;;;;;;;8.48;4.45;;;;;;;;;;5054445;28;20044;-86
2023/06/13 05:59:31;;;;;;;7.05;4.20;;;;;;;;;;5071214;28;20493;-86
2023/06/13 06:01:57;;;;;;;10.23;4.20;;;;;;;;;;5054320;28;20386;-86
2023/06/13 06:04:25;;;;;;;7.55;4.30;;;;;;;;;;5071034;28;20436;-86
2023/06/13 06:06:52;;;;;;;8.73;4.40;;;;;;;;;;5064545;28;20047;-87
2023/06/13 06:09:18;;;;;;;6.93;4.43;;;;;;;;;;5041909;28;20115;-86
2023/06/13 06:11:44;;;;;;;10.05;4.30;;;;;;;;;;5049245;28;20048;-87
2023/06/13 06:14:11;;;;;;;9.38;4.38;;;;;;;;;;5050589;28;20084;-86
2023/06/13 06:16:37;;;;;;;6.00;4.22;;;;;;;;;;5050675;28;20076;-87
2023/06/13 06:19:03;;;;;;;6.00;4.00;;;;;;;;;;5042247;28;20049;-86
2023/06/13 06:21:29;;;;;;;5.60;4.00;;;;;;;;;;5050698;28;20043;-86
2023/06/13 06:23:56;;;;;;;7.40;4.20;;;;;;;;;;5026552;28;20183;-86
2023/06/13 06:26:22;;;;;;;6.78;4.18;;;;;;;;;;5050735;28;20506;-86
2023/06/13 06:28:48;;;;;;;6.68;4.13;;;;;;;;;;5049660;28;20073;-87
2023/06/13 06:31:14;;;;;;;7.90;4.35;;;;;;;;;;5050900;28;20106;-87
2023/06/13 06:33:40;;;;;;;7.95;4.13;;;;;;;;;;5033918;28;20094;-87
2023/06/13 06:36:06;;;;;;;8.10;4.45;;;;;;;;;;5050950;28;20060;-87
2023/06/13 06:38:32;;;;;;;6.15;3.88;;;;;;;;;;5050093;28;20029;-87
2023/06/13 06:40:59;;;;;;;7.22;4.35;;;;;;;;;;5050140;28;20048;-87
2023/06/13 06:43:25;;;;;;;6.35;4.25;;;;;;;;;;5062588;28;20048;-87
2023/06/13 06:45:51;;;;;;;10.30;4.43;;;;;;;;;;5051851;28;20043;-87
2023/06/13 06:48:17;;;;;;;5.13;3.95;;;;;;;;;;5057160;28;20033;-87
2023/06/13 06:50:43;;;;;;;6.53;3.95;;;;;;;;;;5048953;28;20041;-87
2023/06/13 06:53:09;;;;;;;5.72;3.97;;;;;;;;;;5048574;28;20044;-87
2023/06/13 06:55:35;;;;;;;8.38;4.00;;;;;;;;;;5051052;28;20036;-87
2023/06/13 06:58:01;;;;;;;7.72;3.67;;;;;;;;;;5058153;28;20061;-86
2023/06/13 07:00:27;;;;;;;5.90;4.07;;;;;;;;;;5053100;28;20047;-87
2023/06/13 07:02:54;;;;;;;8.93;3.97;;;;;;;;;;5053500;28;20103;-87
2023/06/13 07:05:21;;;;;;;8.98;4.15;;;;;;;;;;5037335;28;20033;-87
2023/06/13 07:07:47;;;;;;;9.05;3.90;;;;;;;;;;5070585;28;20037;-87
2023/06/13 07:10:13;;;;;;;10.68;4.03;;;;;;;;;;5038032;28;20037;-87
2023/06/13 07:12:39;;;;;;;9.32;4.70;;;;;;;;;;5054422;28;20082;-87
2023/06/13 07:15:06;;;;;;;7.05;3.88;;;;;;;;;;5054047;28;20053;-87
2023/06/13 07:17:32;;;;;;;11.73;4.50;;;;;;;;;;5057021;28;20047;-87
2023/06/13 07:19:59;;;;;;;8.30;3.95;;;;;;;;;;5053727;28;20076;-87
2023/06/13 07:22:25;;;;;;;6.25;3.95;;;;;;;;;;5054463;28;20037;-87
2023/06/13 07:24:51;;;;;;;6.18;3.85;;;;;;;;;;5053589;28;20056;-87
2023/06/13 07:27:18;;;;;;;10.95;4.32;;;;;;;;;;5055526;28;20428;-87
2023/06/13 07:29:44;;;;;;;9.82;3.92;;;;;;;;;;5053658;28;20083;-87
2023/06/13 07:32:10;;;;;;;8.73;4.20;;;;;;;;;;5053955;28;20047;-87
2023/06/13 07:34:36;;;;;;;6.85;3.63;;;;;;;;;;5054130;28;20088;-87
2023/06/13 07:37:03;;;;;;;6.20;4.20;;;;;;;;;;5054751;28;20047;-87
2023/06/13 07:39:29;;;;;;;8.60;4.40;;;;;;;;;;5037163;28;20037;-87
2023/06/13 07:41:55;;;;;;;9.77;4.13;;;;;;;;;;5054659;28;20040;-87
2023/06/13 07:44:21;;;;;;;9.25;3.97;;;;;;;;;;5047485;28;20044;-87
2023/06/13 07:46:48;;;;;;;7.53;4.00;;;;;;;;;;5074378;28;20048;-87
2023/06/13 07:49:14;;;;;;;7.47;4.10;;;;;;;;;;5071653;28;20063;-87
2023/06/13 07:51:40;;;;;;;8.20;4.13;;;;;;;;;;5074128;28;20115;-87
2023/06/13 07:54:07;;;;;;;5.97;3.90;;;;;;;;;;5066635;28;20390;-87
2023/06/13 07:56:33;;;;;;;6.22;4.15;;;;;;;;;;5074308;28;20036;-87
2023/06/13 07:58:59;;;;;;;8.35;4.10;;;;;;;;;;5066547;28;20108;-87
2023/06/13 08:01:25;;;;;;;7.85;4.30;;;;;;;;;;5075055;28;20036;-88
2023/06/13 08:03:51;;;;;;;8.38;4.10;;;;;;;;;;5071208;28;20049;-87
2023/06/13 08:06:18;;;;;;;9.23;4.30;;;;;;;;;;5073056;28;20068;-87
2023/06/13 08:08:44;;;;;;;6.50;4.10;;;;;;;;;;5073892;28;20507;-87
2023/06/13 08:11:10;;;;;;;8.30;4.25;;;;;;;;;;5073338;28;20509;-87
2023/06/13 08:13:36;;;;;;;4.82;3.95;;;;;;;;;;5075362;28;20127;-87
2023/06/13 08:16:02;;;;;;;6.65;4.10;;;;;;;;;;5049986;28;20051;-87
2023/06/13 08:18:30;;;;;;;7.00;3.97;;;;;;;;;;5061480;28;20520;-87
2023/06/13 08:20:56;;;;;;;6.88;4.03;;;;;;;;;;5036117;28;20516;-87
2023/06/13 08:23:22;;;;;;;7.35;4.20;;;;;;;;;;5074829;28;20033;-87
2023/06/13 08:25:48;;;;;;;7.85;3.70;;;;;;;;;;5074867;28;20052;-87
2023/06/13 08:28:14;;;;;;;7.35;4.28;;;;;;;;;;5065638;28;20035;-87
2023/06/13 08:30:42;;;;;;;8.48;3.97;;;;;;;;;;5061653;28;20041;-87
2023/06/13 08:33:08;;;;;;;8.20;4.10;;;;;;;;;;5074359;28;20044;-87
2023/06/13 08:35:34;;;;;;;5.95;4.03;;;;;;;;;;5057636;28;20037;-87
2023/06/13 08:38:01;;;;;;;6.55;3.90;;;;;;;;;;5074710;28;20036;-87
2023/06/13 08:40:27;;;;;;;7.60;3.83;;;;;;;;;;5057776;28;20040;-87
2023/06/13 08:42:53;;;;;;;6.32;4.00;;;;;;;;;;5066403;28;20044;-88
2023/06/13 08:45:20;;;;;;;6.43;3.65;;;;;;;;;;5058462;28;20052;-87
2023/06/13 08:47:48;;;;;;;8.25;4.63;;;;;;;;;;5072426;28;20049;-86
2023/06/13 08:50:18;;;;;;;6.07;4.00;;;;;;;;;;5071891;28;20413;-86
2023/06/13 08:52:46;;;;;;;7.70;3.50;;;;;;;;;;5060296;28;20044;-88
2023/06/13 08:55:14;;;;;;;6.80;3.80;;;;;;;;;;5060147;28;20131;-87
2023/06/13 08:57:41;;;;;;;10.65;4.03;;;;;;;;;;5069866;28;20052;-87
2023/06/13 09:00:10;;;;;;;10.95;3.95;;;;;;;;;;5071691;28;20051;-87
2023/06/13 09:02:37;;;;;;;6.85;3.67;;;;;;;;;;5070120;28;20048;-87
2023/06/13 09:05:04;;;;;;;6.65;3.67;;;;;;;;;;5047094;28;20048;-88
2023/06/13 09:07:30;;;;;;;8.07;3.85;;;;;;;;;;5066891;28;20576;-87
2023/06/13 09:09:57;;;;;;;7.07;3.55;;;;;;;;;;5055047;28;20048;-87
2023/06/13 09:12:23;;;;;;;5.53;3.53;;;;;;;;;;5070204;28;20036;-87
2023/06/13 09:14:49;;;;;;;8.57;3.65;;;;;;;;;;5070396;28;20080;-87
2023/06/13 09:17:17;;;;;;;8.48;3.92;;;;;;;;;;5055700;28;20143;-87
2023/06/13 09:19:43;;;;;;;10.00;3.75;;;;;;;;;;5068770;28;20040;-87
2023/06/13 09:22:09;;;;;;;5.88;3.53;;;;;;;;;;5071531;28;20120;-87
2023/06/13 09:24:36;;;;;;;6.55;3.40;;;;;;;;;;5069487;28;20124;-87
2023/06/13 09:27:04;;;;;;;5.50;3.72;;;;;;;;;;5069786;28;20028;-87
2023/06/13 09:29:34;;;;;;;8.98;3.55;;;;;;;;;;5056959;28;20379;-87
2023/06/13 09:32:01;;;;;;;6.55;3.45;;;;;;;;;;5045759;28;20040;-87
2023/06/13 09:34:30;;;;;;;14.88;3.80;;;;;;;;;;5069543;28;20048;-87
2023/06/13 09:36:57;;;;;;;6.22;3.50;;;;;;;;;;5071596;28;20400;-87
2023/06/13 09:39:28;;;;;;;6.20;3.40;;;;;;;;;;5066286;28;20055;-87
2023/06/13 09:41:55;;;;;;;6.13;3.25;;;;;;;;;;5072607;28;20036;-87
2023/06/13 09:44:23;;;;;;;7.53;3.40;;;;;;;;;;5070305;28;20109;-87
2023/06/13 09:46:50;;;;;;;11.05;3.10;;;;;;;;;;5071254;28;20040;-87
2023/06/13 09:49:17;;;;;;;8.93;3.60;;;;;;;;;;5064531;28;20045;-87
2023/06/13 09:51:43;;;;;;;6.07;3.30;;;;;;;;;;5054734;28;20048;-87
2023/06/13 09:54:10;;;;;;;6.45;3.30;;;;;;;;;;5053588;28;20060;-87
2023/06/13 09:56:36;;;;;;;4.68;3.10;;;;;;;;;;5067892;28;20040;-87
2023/06/13 09:59:02;;;;;;;5.30;3.00;;;;;;;;;;5068030;28;20385;-87
2023/06/13 10:01:34;;;;;;;7.03;3.30;;;;;;;;;;5070822;28;20093;-87
2023/06/13 10:04:01;;;;;;;7.00;3.55;;;;;;;;;;5038408;28;20505;-87
2023/06/13 10:06:29;;;;;;;4.63;3.13;;;;;;;;;;5061621;28;20072;-88
2023/06/13 10:08:55;;;;;;;7.38;3.20;;;;;;;;;;5071319;28;20509;-87
2023/06/13 10:11:29;;;;;;;5.57;3.08;;;;;;;;;;5056588;28;20431;-88
2023/06/13 10:13:59;;;;;;;7.23;3.27;;;;;;;;;;5054474;28;20046;-88
2023/06/13 10:16:25;;;;;;;12.98;3.28;;;;;;;;;;5065489;28;20082;-87
2023/06/13 10:18:56;;;;;;;7.50;3.40;;;;;;;;;;5071322;28;20497;-88
2023/06/13 10:21:22;;;;;;;5.10;3.38;;;;;;;;;;5042085;28;20040;-87
2023/06/13 10:23:50;;;;;;;8.82;3.45;;;;;;;;;;5070828;28;20048;-87
2023/06/13 10:26:31;;;;;;;4.93;3.20;;;;;;;;;;5067348;28;20494;-88
2023/06/13 10:29:05;;;;;;;8.05;3.78;;;;;;;;;;5072246;28;20453;-87
2023/06/13 10:31:35;;;;;;;6.18;3.17;;;;;;;;;;5065709;28;20045;-88
2023/06/13 10:34:01;;;;;;;6.65;3.20;;;;;;;;;;5058647;28;20041;-87
2023/06/13 10:36:45;;;;;;;7.55;3.30;;;;;;;;;;5073470;28;20128;-87
2023/06/13 10:39:14;;;;;;;5.85;2.95;;;;;;;;;;5076107;28;20110;-87
2023/06/13 10:41:40;;;;;;;9.93;3.35;;;;;;;;;;5102145;28;20040;-88
2023/06/13 10:44:11;;;;;;;5.30;3.35;;;;;;;;;;5074949;28;20040;-88
2023/06/13 10:46:38;;;;;;;4.50;3.42;;;;;;;;;;5074965;28;20549;-87
2023/06/13 10:49:04;;;;;;;8.18;3.70;;;;;;;;;;5072351;28;20128;-87
2023/06/13 10:51:31;;;;;;;7.07;3.40;;;;;;;;;;5071036;28;20056;-87
2023/06/13 10:53:58;;;;;;;6.75;3.58;;;;;;;;;;5069887;28;20554;-87
2023/06/13 10:56:31;;;;;;;4.57;3.28;;;;;;;;;;5074460;28;20036;-87
2023/06/13 10:59:10;;;;;;;10.43;3.20;;;;;;;;;;5058182;28;20433;-87
2023/06/13 11:01:40;;;;;;;7.38;3.15;;;;;;;;;;5072799;28;20485;-87
2023/06/13 11:04:09;;;;;;;7.22;3.40;;;;;;;;;;5069097;28;20435;-87
2023/06/13 11:06:36;;;;;;;8.10;3.47;;;;;;;;;;5074427;28;20116;-88
2023/06/13 11:09:09;;;;;;;5.70;3.30;;;;;;;;;;5057658;28;20090;-87
2023/06/13 11:11:39;;;;;;;11.10;3.60;;;;;;;;;;5063798;28;20385;-87
2023/06/13 11:14:07;;;;;;;6.20;3.20;;;;;;;;;;5061718;28;20128;-87
2023/06/13 11:16:37;;;;;;;8.00;3.42;;;;;;;;;;5063557;28;20044;-87
2023/06/13 11:19:12;;;;;;;5.85;3.53;;;;;;;;;;5074298;28;20048;-87
2023/06/13 11:21:38;;;;;;;;;;;;;;;;;;5073935;28;20060;-87
2023/06/13 11:24:05;;;;;;;5.07;3.28;;;;;;;;;;5064208;28;19979;-88
2023/06/13 11:26:31;;;;;;;6.72;3.60;;;;;;;;;;5055169;28;20033;-87
2023/06/13 11:28:58;;;;;;;7.80;3.60;;;;;;;;;;5074128;28;20041;-87
2023/06/13 11:31:25;;;;;;;6.03;3.42;;;;;;;;;;5056617;28;20115;-87
2023/06/13 11:33:52;;;;;;;9.90;3.65;;;;;;;;;;5069116;28;20045;-87
2023/06/13 11:36:19;;;;;;;6.68;3.50;;;;;;;;;;5067409;28;20135;-87
2023/06/13 11:38:54;;;;;;;5.40;3.50;;;;;;;;;;5069844;28;20131;-87
2023/06/13 11:41:20;;;;;;;6.93;3.50;;;;;;;;;;5072517;28;20123;-88
2023/06/13 11:43:46;;;;;;;6.68;4.18;;;;;;;;;;5057122;28;20044;-87
2023/06/13 11:46:13;;;;;;;6.03;2.95;;;;;;;;;;5061094;28;20059;-87
2023/06/13 11:48:39;;;;;;;8.27;3.28;;;;;;;;;;5056560;28;20119;-88
2023/06/13 11:51:12;;;;;;;6.53;3.30;;;;;;;;;;5064760;28;20044;-87
2023/06/13 11:53:47;;;;;;;7.72;3.60;;;;;;;;;;5056236;28;20045;-87
2023/06/13 11:56:15;;;;;;;7.18;3.15;;;;;;;;;;5064471;28;20040;-87
2023/06/13 11:58:41;;;;;;;7.47;3.53;;;;;;;;;;5039949;28;20041;-87
2023/06/13 12:01:07;;;;;;;7.50;3.58;;;;;;;;;;5073388;28;20401;-87
2023/06/13 12:03:37;;;;;;;7.40;4.28;;;;;;;;;;5070065;28;20032;-87
2023/06/13 12:06:06;;;;;;;7.75;3.72;;;;;;;;;;5066851;28;20151;-88
2023/06/13 12:08:36;;;;;;;5.85;3.20;;;;;;;;;;5073088;28;20385;-87
2023/06/13 12:11:05;;;;;;;4.88;3.72;;;;;;;;;;5073249;28;20078;-87
2023/06/13 12:13:36;;;;;;;9.35;3.95;;;;;;;;;;5072640;28;20046;-87
2023/06/13 12:16:02;;;;;;;5.82;3.20;;;;;;;;;;5061777;28;20040;-87
2023/06/13 12:18:28;;;;;;;7.53;3.63;;;;;;;;;;5055995;28;20036;-87
2023/06/13 12:20:56;;;;;;;7.40;3.30;;;;;;;;;;5072999;28;20098;-87
2023/06/13 12:23:23;;;;;;;7.43;3.55;;;;;;;;;;5055889;28;20032;-88
2023/06/13 12:25:50;;;;;;;5.40;3.33;;;;;;;;;;5072871;28;20044;-87
2023/06/13 12:28:17;;;;;;;5.45;3.10;;;;;;;;;;5061073;28;20044;-88
2023/06/13 12:30:45;;;;;;;4.55;3.15;;;;;;;;;;5052231;28;20048;-88
2023/06/13 12:33:15;;;;;;;6.00;3.30;;;;;;;;;;5073822;28;20076;-88
2023/06/13 12:35:51;;;;;;;9.35;3.78;;;;;;;;;;5072646;28;20115;-88
2023/06/13 12:38:17;;;;;;;4.85;2.90;;;;;;;;;;5093977;28;20049;-88
2023/06/13 12:40:46;;;;;;;8.77;3.33;;;;;;;;;;5072174;28;20114;-89
2023/06/13 12:43:12;;;;;;;7.25;3.22;;;;;;;;;;5072379;28;20045;-88
2023/06/13 12:45:43;;;;;;;5.60;3.15;;;;;;;;;;5071929;28;20044;-88
2023/06/13 12:48:15;;;;;;;5.20;3.03;;;;;;;;;;5064805;28;20082;-88
2023/06/13 12:50:42;;;;;;;4.10;3.28;;;;;;;;;;5068097;28;20060;-88
2023/06/13 12:53:08;;;;;;;4.78;3.40;;;;;;;;;;5071499;28;20404;-88
2023/06/13 12:55:35;;;;;;;7.25;3.35;;;;;;;;;;5071781;28;20052;-88
2023/06/13 12:58:20;;;;;;;7.47;3.20;;;;;;;;;;5070033;28;20047;-87
2023/06/13 13:00:52;;;;;;;7.63;3.17;;;;;;;;;;5060656;28;20053;-88
2023/06/13 13:03:19;;;;;;;4.82;3.33;;;;;;;;;;5072024;28;20060;-88
2023/06/13 13:05:45;;;;;;;5.30;3.03;;;;;;;;;;5071462;28;20063;-88
2023/06/13 13:08:11;;;;;;;4.78;3.25;;;;;;;;;;5065905;28;20167;-88
2023/06/13 13:10:37;;;;;;;4.30;3.00;;;;;;;;;;5050265;28;20040;-87
2023/06/13 13:13:03;;;;;;;5.88;3.17;;;;;;;;;;5050922;28;20120;-88
2023/06/13 13:15:31;;;;;;;6.22;3.13;;;;;;;;;;5055233;28;20142;-87
2023/06/13 13:17:57;;;;;;;10.48;3.50;;;;;;;;;;5068785;28;20084;-88
2023/06/13 13:20:23;;;;;;;3.75;3.10;;;;;;;;;;5069435;28;20070;-87
2023/06/13 13:22:49;;;;;;;6.18;3.00;;;;;;;;;;5071557;28;20477;-87
2023/06/13 13:25:15;;;;;;;6.95;3.20;;;;;;;;;;5071779;28;20051;-88
2023/06/13 13:27:41;;;;;;;6.97;3.45;;;;;;;;;;5071339;28;20036;-87
2023/06/13 13:30:08;;;;;;;7.53;3.30;;;;;;;;;;5068661;28;20040;-88
2023/06/13 13:32:34;;;;;;;6.70;3.33;;;;;;;;;;5054329;28;20028;-87
2023/06/13 13:35:02;;;;;;;5.57;3.38;;;;;;;;;;5071685;28;20366;-87
2023/06/13 13:37:28;;;;;;;6.80;3.15;;;;;;;;;;5055009;28;20093;-88
2023/06/13 13:39:54;;;;;;;8.77;3.53;;;;;;;;;;5070950;28;20075;-87
2023/06/13 13:42:20;;;;;;;4.57;2.90;;;;;;;;;;5059417;28;20085;-87
2023/06/13 13:44:47;;;;;;;8.27;3.38;;;;;;;;;;5071127;28;20189;-87
2023/06/13 13:47:13;;;;;;;8.48;3.25;;;;;;;;;;5071184;28;20040;-88
2023/06/13 13:49:40;;;;;;;8.40;3.20;;;;;;;;;;5053925;28;20063;-88
2023/06/13 13:52:06;;;;;;;8.30;3.20;;;;;;;;;;5067956;28;20048;-87
2023/06/13 13:54:32;;;;;;;6.22;3.53;;;;;;;;;;5054639;28;20040;-88
2023/06/13 13:56:58;;;;;;;8.35;3.10;;;;;;;;;;5071253;28;20051;-87
2023/06/13 13:59:25;;;;;;;5.75;3.10;;;;;;;;;;5054727;28;20509;-86
2023/06/13 14:01:51;;;;;;;7.68;3.35;;;;;;;;;;5066979;28;20123;-86
2023/06/13 14:04:18;;;;;;;7.50;2.88;;;;;;;;;;5054503;28;20132;-86
2023/06/13 14:06:45;;;;;;;6.70;3.63;;;;;;;;;;5070790;28;20098;-87
2023/06/13 14:09:13;;;;;;;6.43;3.30;;;;;;;;;;5070541;28;20123;-86
2023/06/13 14:11:39;;;;;;;7.03;3.33;;;;;;;;;;5056284;28;20040;-87
2023/06/13 14:14:05;;;;;;;14.43;3.58;;;;;;;;;;5065791;28;20443;-88
2023/06/13 14:16:32;;;;;;;5.38;3.60;;;;;;;;;;5060429;28;20071;-88
2023/06/13 14:18:58;;;;;;;4.40;2.97;;;;;;;;;;5070959;28;20092;-87
2023/06/13 14:21:25;;;;;;;4.50;3.15;;;;;;;;;;5070983;28;20075;-88
2023/06/13 14:23:53;;;;;;;8.68;3.45;;;;;;;;;;5063027;28;20041;-88
2023/06/13 14:26:22;;;;;;;7.18;3.38;;;;;;;;;;5057348;28;20490;-87
2023/06/13 14:28:48;;;;;;;8.70;3.40;;;;;;;;;;5070756;28;20072;-88
2023/06/13 14:31:14;;;;;;;9.55;3.30;;;;;;;;;;5071103;28;20041;-88
2023/06/13 14:33:43;;;;;;;6.13;3.28;;;;;;;;;;5054471;28;20529;-88
2023/06/13 14:36:09;;;;;;;6.88;3.38;;;;;;;;;;5047213;28;20518;-87
2023/06/13 14:38:38;;;;;;;5.70;3.10;;;;;;;;;;5071213;28;20119;-88
2023/06/13 14:41:08;;;;;;;3.92;2.95;;;;;;;;;;5044159;28;20048;-88
2023/06/13 14:43:34;;;;;;;4.80;3.00;;;;;;;;;;5066303;28;20502;-88